Time;durP1;ratioP1;P1;durP2;ratioP2;P2;SDS_P1;SDS_P2;PMS_P1;PMS_P2;Temp;Humidity;BMP_temperature;BMP_pressure;BME280_temperature;BME280_humidity;BME280_pressure;Samples;Min_cycle;Max_cycle;Signal;HPM_P1;HPM_P2
2021/10/24 00:00:14;;;;;;;23.13;13.48;;;9.10;99.90;;;;;;5088800;28;20012;-77
2021/10/24 00:02:40;;;;;;;18.15;12.95;;;9.10;99.90;;;;;;5090233;28;20067;-77
2021/10/24 00:05:07;;;;;;;25.83;13.52;;;9.10;99.90;;;;;;5090919;28;20091;-77
2021/10/24 00:07:33;;;;;;;26.63;14.82;;;9.00;99.90;;;;;;5086210;28;20048;-76
2021/10/24 00:09:58;;;;;;;21.08;12.52;;;8.90;99.90;;;;;;5090240;28;20059;-77
2021/10/24 00:12:24;;;;;;;26.27;15.10;;;8.80;99.90;;;;;;5073478;28;20016;-77
2021/10/24 00:14:50;;;;;;;21.40;14.75;;;8.80;99.90;;;;;;5090103;28;20032;-77
2021/10/24 00:17:16;;;;;;;21.60;14.63;;;8.80;99.90;;;;;;5086561;28;20028;-76
2021/10/24 00:19:41;;;;;;;23.48;14.15;;;8.80;99.90;;;;;;5089102;28;20069;-76
2021/10/24 00:22:07;;;;;;;20.92;13.20;;;8.80;99.90;;;;;;5090223;28;20035;-76
2021/10/24 00:24:33;;;;;;;20.73;12.90;;;8.80;99.90;;;;;;5091864;28;20027;-77
2021/10/24 00:26:59;;;;;;;21.02;14.95;;;8.70;99.90;;;;;;5088287;28;20035;-77
2021/10/24 00:29:25;;;;;;;23.27;15.52;;;8.70;99.90;;;;;;5093221;28;20012;-77
2021/10/24 00:31:50;;;;;;;20.92;14.32;;;8.70;99.90;;;;;;5094981;28;20472;-77
2021/10/24 00:34:16;;;;;;;23.63;14.20;;;8.60;99.90;;;;;;5093081;28;20023;-77
2021/10/24 00:36:42;;;;;;;19.15;14.35;;;8.60;99.90;;;;;;5094971;28;20478;-77
2021/10/24 00:39:07;;;;;;;25.63;15.18;;;8.70;99.90;;;;;;5074095;28;20031;-77
2021/10/24 00:41:33;;;;;;;23.25;14.02;;;8.70;99.90;;;;;;5094981;28;20055;-76
2021/10/24 00:44:16;;;;;;;21.85;15.40;;;8.70;99.90;;;;;;5095439;28;20032;-76
2021/10/24 00:46:42;;;;;;;23.67;13.65;;;8.70;99.90;;;;;;5091869;28;20437;-76
2021/10/24 00:49:07;;;;;;;23.67;13.73;;;8.70;99.90;;;;;;5095391;28;20028;-76
2021/10/24 00:51:33;;;;;;;23.50;15.13;;;8.70;99.90;;;;;;5077792;28;20483;-76
2021/10/24 00:53:59;;;;;;;20.02;13.90;;;8.70;99.90;;;;;;5100457;28;20032;-76
2021/10/24 00:56:24;;;;;;;22.25;13.05;;;8.70;99.90;;;;;;5094539;28;20009;-77
2021/10/24 00:58:50;;;;;;;22.38;13.70;;;8.60;99.90;;;;;;5094952;28;20019;-76
2021/10/24 01:01:16;;;;;;;24.13;14.20;;;8.60;99.90;;;;;;5094669;28;20441;-76
2021/10/24 01:03:42;;;;;;;30.98;15.60;;;8.60;99.90;;;;;;5093758;28;20012;-76
2021/10/24 01:06:07;;;;;;;22.65;13.32;;;8.60;99.90;;;;;;5076536;28;20055;-76
2021/10/24 01:08:36;;;;;;;26.52;15.50;;;8.60;99.90;;;;;;5095075;28;20070;-76
2021/10/24 01:11:02;;;;;;;19.38;14.20;;;8.60;99.90;;;;;;5092227;28;20020;-76
2021/10/24 01:13:28;;;;;;;25.13;15.48;;;8.60;99.90;;;;;;5094754;28;20077;-76
2021/10/24 01:16:08;;;;;;;22.13;15.25;;;8.60;99.90;;;;;;5094640;28;20028;-77
2021/10/24 01:18:34;;;;;;;20.92;14.20;;;8.50;99.90;;;;;;5094579;28;20594;-76
2021/10/24 01:20:59;;;;;;;24.00;13.85;;;8.50;99.90;;;;;;5094548;28;20038;-76
2021/10/24 01:23:25;;;;;;;20.88;13.65;;;8.50;99.90;;;;;;5094846;28;20020;-76
2021/10/24 01:25:53;;;;;;;19.98;13.73;;;8.50;99.90;;;;;;5091880;28;20488;-76
2021/10/24 01:28:19;;;;;;;17.95;13.50;;;8.50;99.90;;;;;;5094216;28;20053;-76
2021/10/24 01:30:44;;;;;;;23.55;14.25;;;8.40;99.90;;;;;;5094901;28;20057;-76
2021/10/24 01:33:12;;;;;;;25.17;13.77;;;8.40;99.90;;;;;;5094237;28;20039;-76
2021/10/24 01:35:53;;;;;;;22.27;15.02;;;8.40;99.90;;;;;;5094388;28;20483;-76
2021/10/24 01:38:20;;;;;;;21.00;13.95;;;8.30;99.90;;;;;;5091259;28;20450;-76
2021/10/24 01:40:45;;;;;;;22.42;15.82;;;8.30;99.90;;;;;;5093443;28;20035;-76
2021/10/24 01:43:11;;;;;;;17.52;14.02;;;8.30;99.90;;;;;;5093904;28;20040;-76
2021/10/24 01:45:36;;;;;;;22.38;15.00;;;8.40;99.90;;;;;;5094051;28;20361;-76
2021/10/24 01:48:03;;;;;;;29.23;16.63;;;8.30;99.90;;;;;;5094185;28;20107;-76
2021/10/24 01:50:29;;;;;;;22.65;15.82;;;8.30;99.90;;;;;;5094309;28;20031;-76
2021/10/24 01:52:55;;;;;;;28.65;16.00;;;8.30;99.90;;;;;;5094035;28;20523;-76
2021/10/24 01:55:21;;;;;;;24.65;16.20;;;8.30;99.90;;;;;;5094005;28;20466;-76
2021/10/24 01:57:49;;;;;;;24.55;16.75;;;8.30;99.90;;;;;;5075652;28;20052;-76
2021/10/24 02:00:16;;;;;;;24.90;15.32;;;8.30;99.90;;;;;;5093638;28;20016;-76
2021/10/24 02:02:42;;;;;;;25.33;14.70;;;8.20;99.90;;;;;;5092123;28;20047;-76
2021/10/24 02:05:08;;;;;;;24.98;17.58;;;8.20;99.90;;;;;;5093781;28;20012;-76
2021/10/24 02:07:34;;;;;;;23.60;17.05;;;8.10;99.90;;;;;;5093789;28;20024;-76
2021/10/24 02:10:00;;;;;;;27.08;16.90;;;8.10;99.90;;;;;;5071652;28;20012;-77
2021/10/24 02:12:26;;;;;;;24.45;16.40;;;8.10;99.90;;;;;;5075176;28;20028;-76
2021/10/24 02:14:51;;;;;;;24.08;14.68;;;8.10;99.90;;;;;;5075773;28;20088;-77
2021/10/24 02:17:17;;;;;;;25.42;15.63;;;8.10;99.90;;;;;;5090514;28;20040;-75
2021/10/24 02:19:43;;;;;;;27.48;16.58;;;8.10;99.90;;;;;;5093946;28;20020;-76
2021/10/24 02:22:09;;;;;;;25.73;15.18;;;8.00;99.90;;;;;;5093492;28;20032;-76
2021/10/24 02:24:34;;;;;;;24.90;15.50;;;8.00;99.90;;;;;;5093445;28;20089;-76
2021/10/24 02:27:00;;;;;;;23.48;14.65;;;8.00;99.90;;;;;;5093034;28;20108;-77
2021/10/24 02:29:26;;;;;;;23.60;14.73;;;8.00;99.90;;;;;;5093348;28;20483;-76
2021/10/24 02:31:51;;;;;;;21.88;15.40;;;8.00;99.90;;;;;;5093269;28;20031;-76
2021/10/24 02:34:17;;;;;;;25.55;17.10;;;7.90;99.90;;;;;;5074717;28;20096;-76
2021/10/24 02:36:43;;;;;;;36.50;20.02;;;7.90;99.90;;;;;;5093075;28;20028;-76
2021/10/24 02:39:08;;;;;;;25.60;14.50;;;7.90;99.90;;;;;;5074853;28;20421;-76
2021/10/24 02:41:34;;;;;;;31.80;16.77;;;7.90;99.90;;;;;;5092868;28;20032;-76
2021/10/24 02:44:00;;;;;;;26.90;16.25;;;7.90;99.90;;;;;;5090454;28;20031;-76
2021/10/24 02:46:25;;;;;;;25.20;15.85;;;7.90;99.90;;;;;;5093163;28;20008;-76
2021/10/24 02:48:51;;;;;;;25.60;15.82;;;7.90;99.90;;;;;;5092725;28;20032;-76
2021/10/24 02:51:16;;;;;;;24.42;15.20;;;7.90;99.90;;;;;;5092619;28;20016;-76
2021/10/24 02:53:42;;;;;;;21.80;14.45;;;7.90;99.90;;;;;;5091822;28;20456;-76
2021/10/24 02:56:08;;;;;;;22.38;15.45;;;7.90;99.90;;;;;;5092611;28;20049;-77
2021/10/24 02:58:33;;;;;;;26.95;15.90;;;7.90;99.90;;;;;;5092868;28;20486;-76
2021/10/24 03:00:59;;;;;;;22.25;14.80;;;7.90;99.90;;;;;;5092485;28;20028;-76
2021/10/24 03:03:25;;;;;;;24.02;15.13;;;7.90;99.90;;;;;;5092514;28;20387;-76
2021/10/24 03:05:50;;;;;;;24.67;15.80;;;7.90;99.90;;;;;;5092758;28;20089;-76
2021/10/24 03:08:16;;;;;;;23.65;14.80;;;7.90;99.90;;;;;;5092837;28;20371;-76
2021/10/24 03:10:41;;;;;;;23.33;15.75;;;7.90;99.90;;;;;;5092629;28;20078;-76
2021/10/24 03:13:07;;;;;;;30.55;16.50;;;7.90;99.90;;;;;;5097578;28;20032;-76
2021/10/24 03:15:33;;;;;;;29.73;16.75;;;7.90;99.90;;;;;;5095092;28;20024;-76
2021/10/24 03:17:59;;;;;;;32.38;19.25;;;7.90;99.90;;;;;;5092245;28;20028;-76
2021/10/24 03:20:25;;;;;;;27.70;16.75;;;7.80;99.90;;;;;;5092378;28;20065;-76
2021/10/24 03:22:50;;;;;;;26.83;17.00;;;7.80;99.90;;;;;;5092728;28;20032;-76
2021/10/24 03:25:16;;;;;;;22.98;15.55;;;7.70;99.90;;;;;;5091777;28;20539;-76
2021/10/24 03:27:42;;;;;;;30.67;17.00;;;7.80;99.90;;;;;;5092408;28;20048;-76
2021/10/24 03:30:08;;;;;;;22.95;15.57;;;7.80;99.90;;;;;;5092322;28;20008;-76
2021/10/24 03:32:34;;;;;;;23.88;17.48;;;7.80;99.90;;;;;;5089291;28;20032;-76
2021/10/24 03:34:59;;;;;;;27.58;17.23;;;7.70;99.90;;;;;;5091982;28;20024;-75
2021/10/24 03:37:25;;;;;;;21.10;15.65;;;7.70;99.90;;;;;;5091317;28;20441;-75
2021/10/24 03:39:51;;;;;;;25.52;15.45;;;7.70;99.90;;;;;;5091383;28;20012;-75
2021/10/24 03:42:17;;;;;;;21.63;15.88;;;7.70;99.90;;;;;;5091595;28;20123;-75
2021/10/24 03:44:42;;;;;;;21.83;15.65;;;7.60;99.90;;;;;;5092044;28;20024;-76
2021/10/24 03:47:08;;;;;;;25.52;16.10;;;7.60;99.90;;;;;;5091472;28;20130;-76
2021/10/24 03:49:34;;;;;;;27.17;17.63;;;7.60;99.90;;;;;;5091560;28;20616;-76
2021/10/24 03:52:00;;;;;;;29.05;16.23;;;7.60;99.90;;;;;;5073949;28;20024;-75
2021/10/24 03:54:25;;;;;;;28.60;16.15;;;7.50;99.90;;;;;;5091624;28;20482;-76
2021/10/24 03:56:51;;;;;;;26.52;16.58;;;7.50;99.90;;;;;;5073805;28;20031;-76
2021/10/24 03:59:17;;;;;;;24.02;16.40;;;7.50;99.90;;;;;;5091644;28;20027;-76
2021/10/24 04:01:42;;;;;;;30.95;17.92;;;7.50;99.90;;;;;;5091238;28;20796;-76
2021/10/24 04:04:08;;;;;;;26.48;17.85;;;7.50;99.90;;;;;;5091787;28;20467;-76
2021/10/24 04:06:34;;;;;;;27.98;17.05;;;7.50;99.90;;;;;;5091670;28;20095;-76
2021/10/24 04:08:59;;;;;;;24.67;16.00;;;7.40;99.90;;;;;;5091345;28;20111;-76
2021/10/24 04:11:25;;;;;;;28.10;14.55;;;7.40;99.90;;;;;;5073286;28;20020;-76
2021/10/24 04:13:51;;;;;;;26.48;16.02;;;7.40;99.90;;;;;;5073703;28;20028;-75
2021/10/24 04:16:16;;;;;;;25.55;15.15;;;7.40;99.90;;;;;;5090673;28;20070;-76
2021/10/24 04:18:42;;;;;;;33.42;16.42;;;7.40;99.90;;;;;;5089087;28;20020;-76
2021/10/24 04:21:08;;;;;;;27.20;15.57;;;7.30;99.90;;;;;;5071770;28;20475;-76
2021/10/24 04:23:34;;;;;;;25.75;14.43;;;7.30;99.90;;;;;;5090857;28;20102;-75
2021/10/24 04:25:59;;;;;;;21.65;14.57;;;7.30;99.90;;;;;;5091155;28;20111;-76
2021/10/24 04:28:25;;;;;;;23.83;14.73;;;7.30;99.90;;;;;;5090640;28;20020;-75
2021/10/24 04:30:51;;;;;;;21.40;14.90;;;7.30;99.90;;;;;;5091373;28;20033;-75
2021/10/24 04:33:17;;;;;;;23.92;15.32;;;7.20;99.90;;;;;;5088670;28;20028;-76
2021/10/24 04:35:43;;;;;;;24.52;14.60;;;7.20;99.90;;;;;;5091334;28;20058;-76
2021/10/24 04:38:08;;;;;;;36.20;19.80;;;7.10;99.90;;;;;;5073026;28;20047;-76
2021/10/24 04:40:35;;;;;;;23.45;14.30;;;7.10;99.90;;;;;;5091167;28;20052;-76
2021/10/24 04:43:00;;;;;;;23.08;15.52;;;7.10;99.90;;;;;;5088689;28;20070;-76
2021/10/24 04:45:26;;;;;;;22.02;14.45;;;7.20;99.90;;;;;;5091338;28;20044;-76
2021/10/24 04:47:52;;;;;;;29.42;15.80;;;7.10;99.90;;;;;;5091327;28;20511;-76
2021/10/24 04:50:17;;;;;;;20.30;13.95;;;7.20;99.90;;;;;;5073377;28;20054;-76
2021/10/24 04:52:43;;;;;;;21.73;15.32;;;7.20;99.90;;;;;;5068108;28;20021;-75
2021/10/24 04:55:09;;;;;;;23.45;15.20;;;7.10;99.90;;;;;;5090945;28;20134;-76
2021/10/24 04:57:35;;;;;;;23.85;14.70;;;7.20;99.90;;;;;;5091061;28;20483;-76
2021/10/24 05:00:00;;;;;;;25.15;15.93;;;7.20;99.90;;;;;;5091219;28;20020;-75
2021/10/24 05:02:26;;;;;;;25.45;16.02;;;7.20;99.90;;;;;;5090937;28;20039;-76
2021/10/24 05:04:52;;;;;;;21.40;14.98;;;7.20;99.90;;;;;;5091186;28;20044;-76
2021/10/24 05:07:17;;;;;;;19.60;14.70;;;7.30;99.90;;;;;;5088221;28;20046;-76
2021/10/24 05:09:43;;;;;;;20.52;13.60;;;7.30;99.90;;;;;;5090592;28;20020;-76
2021/10/24 05:12:09;;;;;;;18.27;13.80;;;7.30;99.90;;;;;;5091459;28;20035;-76
2021/10/24 05:14:34;;;;;;;23.30;13.60;;;7.30;99.90;;;;;;5091209;28;20103;-76
2021/10/24 05:17:00;;;;;;;18.58;12.63;;;7.20;99.90;;;;;;5094627;28;20024;-75
2021/10/24 05:19:25;;;;;;;23.52;13.43;;;7.20;99.90;;;;;;5094828;28;20051;-76
2021/10/24 05:21:51;;;;;;;19.27;14.02;;;7.20;99.90;;;;;;5094110;28;20089;-76
2021/10/24 05:24:17;;;;;;;23.67;12.63;;;7.20;99.90;;;;;;5093213;28;20486;-76
2021/10/24 05:26:43;;;;;;;21.60;12.60;;;7.20;99.90;;;;;;5094796;28;20027;-76
2021/10/24 05:29:08;;;;;;;20.23;12.80;;;7.20;99.90;;;;;;5094350;28;20012;-77
2021/10/24 05:31:34;;;;;;;24.00;13.32;;;7.20;99.90;;;;;;5094702;28;20039;-76
2021/10/24 05:34:01;;;;;;;17.83;12.38;;;7.20;99.90;;;;;;5097318;28;20537;-76
2021/10/24 05:36:27;;;;;;;22.75;13.20;;;7.10;99.90;;;;;;5077626;28;20012;-75
2021/10/24 05:38:52;;;;;;;23.30;14.35;;;7.10;99.90;;;;;;5094101;28;20028;-75
2021/10/24 05:41:18;;;;;;;27.45;13.57;;;7.10;99.90;;;;;;5075995;28;20502;-75
2021/10/24 05:43:45;;;;;;;24.38;14.55;;;7.10;99.90;;;;;;5094089;28;20043;-75
2021/10/24 05:46:11;;;;;;;21.33;12.50;;;7.10;99.90;;;;;;5094309;28;20021;-75
2021/10/24 05:48:36;;;;;;;23.73;13.27;;;7.10;99.90;;;;;;5075935;28;20032;-75
2021/10/24 05:51:02;;;;;;;22.83;12.75;;;7.00;99.90;;;;;;5094022;28;20521;-75
2021/10/24 05:53:28;;;;;;;15.60;12.02;;;7.00;99.90;;;;;;5093845;28;20035;-76
2021/10/24 05:55:54;;;;;;;16.63;11.40;;;7.00;99.90;;;;;;5071609;28;20059;-75
2021/10/24 05:58:20;;;;;;;23.17;11.82;;;7.00;99.90;;;;;;5075862;28;20471;-75
2021/10/24 06:00:45;;;;;;;18.50;11.82;;;6.90;99.90;;;;;;5091582;28;20024;-75
2021/10/24 06:03:11;;;;;;;20.35;12.45;;;6.90;99.90;;;;;;5092349;28;20032;-75
2021/10/24 06:05:37;;;;;;;17.08;11.55;;;6.80;99.90;;;;;;5093320;28;20126;-75
2021/10/24 06:08:03;;;;;;;19.45;12.20;;;6.90;99.90;;;;;;5091974;28;20056;-76
2021/10/24 06:10:48;;;;;;;20.73;11.98;;;6.80;99.90;;;;;;5090020;28;20012;-75
2021/10/24 06:13:14;;;;;;;21.90;11.65;;;6.80;99.90;;;;;;5093979;28;20036;-75
2021/10/24 06:15:40;;;;;;;23.75;13.80;;;6.80;99.90;;;;;;5093404;28;20123;-75
2021/10/24 06:18:07;;;;;;;15.48;10.32;;;6.80;99.90;;;;;;5093478;28;20386;-75
2021/10/24 06:20:32;;;;;;;20.42;13.02;;;6.70;99.90;;;;;;5093675;28;20015;-75
2021/10/24 06:22:58;;;;;;;15.48;10.80;;;6.70;99.90;;;;;;5093425;28;20032;-75
2021/10/24 06:25:24;;;;;;;15.45;12.13;;;6.80;99.90;;;;;;5075246;28;20374;-75
2021/10/24 06:27:50;;;;;;;18.67;11.43;;;6.80;99.90;;;;;;5090330;28;20078;-76
2021/10/24 06:30:23;;;;;;;18.15;11.85;;;6.70;99.90;;;;;;5092389;28;20384;-75
2021/10/24 06:32:49;;;;;;;20.17;12.32;;;6.70;99.90;;;;;;5091316;28;20024;-75
2021/10/24 06:35:15;;;;;;;17.05;11.50;;;6.70;99.90;;;;;;5093296;28;20171;-75
2021/10/24 06:37:46;;;;;;;42.47;18.55;;;6.70;99.90;;;;;;5075129;28;20114;-76
2021/10/24 06:40:14;;;;;;;18.52;11.88;;;6.70;99.90;;;;;;5092115;28;20095;-75
2021/10/24 06:42:39;;;;;;;16.02;11.82;;;6.60;99.90;;;;;;5093113;28;20036;-75
2021/10/24 06:45:09;;;;;;;19.27;12.13;;;6.60;99.90;;;;;;5093192;28;20471;-75
2021/10/24 06:47:36;;;;;;;17.35;12.25;;;6.60;99.90;;;;;;5092598;28;20099;-75
2021/10/24 06:50:02;;;;;;;22.60;13.43;;;6.50;99.90;;;;;;5090250;28;20028;-75
2021/10/24 06:52:28;;;;;;;17.23;11.90;;;6.50;99.90;;;;;;5072148;28;20370;-75
2021/10/24 06:54:53;;;;;;;22.30;11.68;;;6.40;99.90;;;;;;5091596;28;20136;-76
2021/10/24 06:57:21;;;;;;;25.65;13.90;;;6.40;99.90;;;;;;5092994;28;20464;-75
2021/10/24 06:59:47;;;;;;;18.48;13.15;;;6.40;99.90;;;;;;5092714;28;20047;-75
2021/10/24 07:02:13;;;;;;;24.15;13.48;;;6.40;99.90;;;;;;5092509;28;20028;-76
2021/10/24 07:04:38;;;;;;;21.90;12.27;;;6.40;99.90;;;;;;5092450;28;20460;-76
2021/10/24 07:07:04;;;;;;;27.42;13.90;;;6.50;99.90;;;;;;5089052;28;20027;-75
2021/10/24 07:09:30;;;;;;;18.90;11.43;;;6.40;99.90;;;;;;5089800;28;20084;-76
2021/10/24 07:11:55;;;;;;;20.92;12.45;;;6.50;99.90;;;;;;5072206;28;20069;-75
2021/10/24 07:14:21;;;;;;;18.17;11.90;;;6.50;99.90;;;;;;5091755;28;20369;-75
2021/10/24 07:16:47;;;;;;;21.45;13.02;;;6.40;99.90;;;;;;5084962;28;20020;-75
2021/10/24 07:19:12;;;;;;;21.52;13.48;;;6.40;99.90;;;;;;5092237;28;20380;-76
2021/10/24 07:21:38;;;;;;;22.02;13.10;;;6.40;99.90;;;;;;5092085;28;20028;-76
2021/10/24 07:24:04;;;;;;;21.45;12.85;;;6.50;99.90;;;;;;5091401;28;20418;-76
2021/10/24 07:26:31;;;;;;;17.02;11.38;;;6.50;99.90;;;;;;5092581;28;20463;-76
2021/10/24 07:28:57;;;;;;;20.63;11.80;;;6.50;99.90;;;;;;5091887;28;20031;-76
2021/10/24 07:31:23;;;;;;;21.25;12.00;;;6.50;99.90;;;;;;5089852;28;20028;-75
2021/10/24 07:33:49;;;;;;;24.65;12.00;;;6.60;99.90;;;;;;5090225;28;20024;-75
2021/10/24 07:36:14;;;;;;;22.67;11.82;;;6.60;99.90;;;;;;5091841;28;20031;-76
2021/10/24 07:38:40;;;;;;;20.35;10.40;;;6.60;99.90;;;;;;5073690;28;20051;-76
2021/10/24 07:41:06;;;;;;;23.70;12.43;;;6.40;99.90;;;;;;5088191;28;20028;-76
2021/10/24 07:43:32;;;;;;;23.80;11.68;;;6.50;99.90;;;;;;5092061;28;20042;-75
2021/10/24 07:45:58;;;;;;;20.52;12.10;;;6.50;99.90;;;;;;5091622;28;20040;-76
2021/10/24 07:48:24;;;;;;;23.83;12.15;;;6.60;99.90;;;;;;5092314;28;20106;-76
2021/10/24 07:50:50;;;;;;;23.42;11.88;;;6.60;99.90;;;;;;5072392;28;20124;-76
2021/10/24 07:53:18;;;;;;;25.08;12.50;;;6.60;99.90;;;;;;5071698;28;20039;-76
2021/10/24 07:55:44;;;;;;;20.77;11.70;;;6.60;99.90;;;;;;5070606;28;20082;-76
2021/10/24 07:58:10;;;;;;;18.30;12.52;;;6.70;99.90;;;;;;5085350;28;20028;-76
2021/10/24 08:00:36;;;;;;;21.73;11.30;;;6.80;99.90;;;;;;5091595;28;20087;-76
2021/10/24 08:03:08;;;;;;;21.25;12.50;;;6.80;99.90;;;;;;5085429;28;20041;-76
2021/10/24 08:05:34;;;;;;;21.58;11.57;;;6.90;99.90;;;;;;5085935;28;20036;-76
2021/10/24 08:08:00;;;;;;;20.58;12.43;;;6.90;99.90;;;;;;5054802;28;20025;-76
2021/10/24 08:10:26;;;;;;;18.38;11.85;;;7.10;99.90;;;;;;5074768;28;20050;-76
2021/10/24 08:12:53;;;;;;;25.25;13.45;;;7.10;99.90;;;;;;5072581;28;20020;-77
2021/10/24 08:15:19;;;;;;;19.77;11.80;;;7.20;99.90;;;;;;5072158;28;20029;-76
2021/10/24 08:17:47;;;;;;;21.13;13.52;;;7.20;99.90;;;;;;5074464;28;20031;-77
2021/10/24 08:20:13;;;;;;;21.73;12.07;;;7.30;99.90;;;;;;5074755;28;20024;-76
2021/10/24 08:22:39;;;;;;;26.45;13.60;;;7.40;99.90;;;;;;5092291;28;20527;-77
2021/10/24 08:25:05;;;;;;;21.17;12.13;;;7.50;99.90;;;;;;5074318;28;20106;-76
2021/10/24 08:27:31;;;;;;;25.02;13.30;;;7.50;99.90;;;;;;5093146;28;20035;-76
2021/10/24 08:29:59;;;;;;;21.63;13.45;;;7.60;99.90;;;;;;5092033;28;20012;-77
2021/10/24 08:32:24;;;;;;;28.88;14.20;;;7.60;99.90;;;;;;5090657;28;20032;-76
2021/10/24 08:34:50;;;;;;;18.85;11.60;;;7.70;99.90;;;;;;5081939;28;20021;-76
2021/10/24 08:37:16;;;;;;;19.55;11.75;;;7.80;99.90;;;;;;5063410;28;20016;-76
2021/10/24 08:39:42;;;;;;;27.25;12.98;;;7.90;99.90;;;;;;5089428;28;20056;-76
2021/10/24 08:42:08;;;;;;;21.67;12.70;;;8.00;99.90;;;;;;5091872;28;20036;-75
2021/10/24 08:44:35;;;;;;;21.85;11.43;;;8.10;99.90;;;;;;5071604;28;20039;-77
2021/10/24 08:47:02;;;;;;;22.50;11.45;;;8.30;99.90;;;;;;5092493;28;20048;-76
2021/10/24 08:49:28;;;;;;;17.33;12.18;;;8.30;99.90;;;;;;5093048;28;20527;-76
2021/10/24 08:51:54;;;;;;;20.77;11.65;;;8.50;99.90;;;;;;5096631;28;20115;-76
2021/10/24 08:54:33;;;;;;;21.75;11.52;;;8.50;99.90;;;;;;5095270;28;20012;-76
2021/10/24 08:56:59;;;;;;;21.88;11.63;;;8.60;99.90;;;;;;5096151;28;20020;-76
2021/10/24 08:59:24;;;;;;;20.58;11.98;;;8.60;99.90;;;;;;5084887;28;20444;-76
2021/10/24 09:01:55;;;;;;;18.70;11.70;;;8.80;99.90;;;;;;5075939;28;20040;-76
2021/10/24 09:04:20;;;;;;;17.75;9.30;;;8.80;99.90;;;;;;5076447;28;20025;-75
2021/10/24 09:06:57;;;;;;;14.77;8.65;;;8.90;99.90;;;;;;5086937;28;20032;-75
2021/10/24 09:09:37;;;;;;;15.20;8.75;;;9.10;99.90;;;;;;5096529;28;20118;-76
2021/10/24 09:12:08;;;;;;;18.30;8.95;;;9.10;99.90;;;;;;5077533;28;20372;-76
2021/10/24 09:14:41;;;;;;;15.23;8.40;;;9.20;99.90;;;;;;5077602;28;20069;-76
2021/10/24 09:17:09;;;;;;;17.55;8.73;;;9.30;99.90;;;;;;5077587;28;20475;-76
2021/10/24 09:19:40;;;;;;;12.07;7.43;;;9.30;99.90;;;;;;5096375;28;20525;-76
2021/10/24 09:22:17;;;;;;;11.50;7.38;;;9.40;99.90;;;;;;5095956;28;20123;-76
2021/10/24 09:25:01;;;;;;;10.82;7.53;;;9.50;99.90;;;;;;5095721;28;20406;-76
2021/10/24 09:27:31;;;;;;;13.32;7.88;;;9.70;99.90;;;;;;5095909;28;20030;-77
2021/10/24 09:30:09;;;;;;;14.52;8.05;;;9.80;99.90;;;;;;5090964;28;20418;-76
2021/10/24 09:32:58;;;;;;;17.40;8.88;;;9.90;99.90;;;;;;5083856;28;20028;-77
2021/10/24 09:35:35;;;;;;;14.88;8.07;;;10.00;99.90;;;;;;5096364;28;20039;-77
2021/10/24 09:38:29;;;;;;;15.32;7.85;;;10.20;99.90;;;;;;5068236;28;20036;-76
2021/10/24 09:40:56;;;;;;;;;;;10.40;99.90;;;;;;5066829;28;20093;-78
2021/10/24 09:43:25;;;;;;;12.30;7.18;;;10.40;99.90;;;;;;5095294;28;19920;-78
2021/10/24 09:45:58;;;;;;;12.68;7.45;;;10.50;99.90;;;;;;5095917;28;20031;-77
2021/10/24 09:48:28;;;;;;;;;;;10.60;99.90;;;;;;5077721;28;20047;-78
2021/10/24 09:50:59;;;;;;;11.73;7.68;;;10.60;99.90;;;;;;5074354;28;20010;-78
2021/10/24 09:53:28;;;;;;;12.18;7.28;;;10.80;99.90;;;;;;5091795;28;20494;-77
2021/10/24 09:55:57;;;;;;;11.70;9.07;;;10.90;99.90;;;;;;5086695;28;20024;-78
2021/10/24 09:58:28;;;;;;;14.05;7.43;;;11.10;99.90;;;;;;5085386;28;20021;-78
2021/10/24 10:00:54;;;;;;;13.00;7.85;;;11.10;99.90;;;;;;5088509;28;20509;-78
2021/10/24 10:03:21;;;;;;;15.55;8.57;;;11.30;99.90;;;;;;5095104;28;20464;-77
2021/10/24 10:05:47;;;;;;;12.57;7.93;;;11.20;99.90;;;;;;5094207;28;20024;-78
2021/10/24 10:08:14;;;;;;;12.98;6.90;;;11.20;99.90;;;;;;5094053;28;20025;-78
2021/10/24 10:10:47;;;;;;;13.35;7.13;;;11.20;99.90;;;;;;5074714;28;20033;-79
2021/10/24 10:13:17;;;;;;;17.67;7.50;;;11.30;99.90;;;;;;5074927;28;20036;-78
2021/10/24 10:15:47;;;;;;;9.57;7.18;;;11.40;99.90;;;;;;5075137;28;20074;-78
2021/10/24 10:18:12;;;;;;;14.18;7.65;;;11.40;99.90;;;;;;5073729;28;20494;-74
2021/10/24 10:20:50;;;;;;;12.25;6.47;;;11.40;99.90;;;;;;5074646;28;20020;-78
2021/10/24 10:23:23;;;;;;;13.60;6.85;;;11.50;99.90;;;;;;5084986;28;20496;-77
2021/10/24 10:25:50;;;;;;;11.05;6.68;;;11.70;99.90;;;;;;5099775;28;20095;-77
2021/10/24 10:28:47;;;;;;;14.55;6.70;;;11.80;99.90;;;;;;5094410;28;20020;-78
2021/10/24 10:31:14;;;;;;;14.10;7.80;;;11.90;99.90;;;;;;5094703;28;20376;-78
2021/10/24 10:33:41;;;;;;;12.68;6.88;;;11.90;99.90;;;;;;5094516;28;20535;-76
2021/10/24 10:36:08;;;;;;;9.75;6.68;;;12.00;99.90;;;;;;5094860;28;20472;-78
2021/10/24 10:38:40;;;;;;;12.98;6.68;;;12.10;99.90;;;;;;5094609;28;20024;-77
2021/10/24 10:41:09;;;;;;;9.67;6.03;;;12.00;99.90;;;;;;5093835;28;20108;-77
2021/10/24 10:43:35;;;;;;;11.32;6.95;;;12.10;99.90;;;;;;5094208;28;20085;-79
2021/10/24 10:46:03;;;;;;;14.10;7.68;;;12.30;99.90;;;;;;5094713;28;20077;-78
2021/10/24 10:48:46;;;;;;;14.90;7.25;;;12.40;99.90;;;;;;5094085;28;20032;-78
2021/10/24 10:51:19;;;;;;;11.85;6.70;;;12.50;99.90;;;;;;5094303;28;20031;-77
2021/10/24 10:53:45;;;;;;;12.98;7.25;;;12.60;99.90;;;;;;5094140;28;20099;-78
2021/10/24 10:56:20;;;;;;;11.75;6.57;;;12.60;99.90;;;;;;5093644;28;20104;-78
2021/10/24 10:58:54;;;;;;;11.43;5.88;;;12.60;99.90;;;;;;5093913;28;20032;-79
2021/10/24 11:01:37;;;;;;;9.85;5.93;;;12.70;99.90;;;;;;5085327;28;20037;-77
2021/10/24 11:04:16;;;;;;;7.28;5.25;;;12.80;99.90;;;;;;5074061;28;20481;-78
2021/10/24 11:06:55;;;;;;;9.85;5.60;;;13.00;99.90;;;;;;5073968;28;20028;-79
2021/10/24 11:09:45;;;;;;;7.05;4.53;;;13.10;99.90;;;;;;5073472;28;20043;-79
2021/10/24 11:12:38;;;;;;;7.35;4.70;;;13.00;99.90;;;;;;5071757;28;20543;-76
2021/10/24 11:15:13;;;;;;;7.05;4.80;;;13.20;99.90;;;;;;5089752;28;20035;-78
2021/10/24 11:17:47;;;;;;;10.15;5.05;;;13.20;99.90;;;;;;5070646;28;20033;-78
2021/10/24 11:20:26;;;;;;;8.20;4.93;;;13.40;99.90;;;;;;5075652;28;20020;-79
2021/10/24 11:23:13;;;;;;;8.02;4.10;;;13.50;99.90;;;;;;5093308;28;20036;-78
2021/10/24 11:25:40;;;;;;;6.93;3.95;;;13.40;99.90;;;;;;5090290;28;20039;-78
2021/10/24 11:28:10;;;;;;;4.88;4.00;;;13.60;99.90;;;;;;5085349;28;20361;-79
2021/10/24 11:30:38;;;;;;;6.75;4.60;;;13.70;99.90;;;;;;5081227;28;20020;-76
2021/10/24 11:33:04;;;;;;;6.82;4.28;;;13.70;99.90;;;;;;5089266;28;20383;-77
2021/10/24 11:35:30;;;;;;;6.90;4.28;;;13.80;99.90;;;;;;5044938;28;20176;-76
2021/10/24 11:37:59;;;;;;;7.45;4.47;;;13.80;99.90;;;;;;5077482;28;20475;-79
2021/10/24 11:40:28;;;;;;;7.10;4.03;;;13.70;99.90;;;;;;5079254;28;20024;-79
2021/10/24 11:43:02;;;;;;;6.68;3.63;;;13.80;99.90;;;;;;5085634;28;20040;-79
2021/10/24 11:45:31;;;;;;;6.55;3.90;;;13.80;99.90;;;;;;5082865;28;20103;-80
2021/10/24 11:48:01;;;;;;;6.80;4.43;;;13.80;99.90;;;;;;5079919;28;20055;-81
2021/10/24 11:50:46;;;;;;;5.20;4.15;;;13.70;99.90;;;;;;5075467;28;20020;-80
2021/10/24 11:53:42;;;;;;;8.35;4.88;;;13.80;99.90;;;;;;5079806;28;20117;-78
2021/10/24 11:56:11;;;;;;;7.47;4.22;;;13.90;99.90;;;;;;5076290;28;20056;-79
2021/10/24 12:01:25;;;;;;;11.55;5.38;;;13.90;99.90;;;;;;5078213;28;20131;-77
2021/10/24 12:04:13;;;;;;;7.65;4.57;;;13.90;99.90;;;;;;5067059;28;20096;-80
2021/10/24 12:06:45;;;;;;;9.60;5.00;;;14.00;99.90;;;;;;5080301;28;20020;-78
2021/10/24 12:09:14;;;;;;;6.70;4.07;;;14.00;99.90;;;;;;5078287;28;20433;-78
2021/10/24 12:11:45;;;;;;;5.20;3.67;;;13.90;99.90;;;;;;5075305;28;20378;-79
2021/10/24 12:14:14;;;;;;;7.88;4.22;;;14.10;99.90;;;;;;5086176;28;20013;-80
2021/10/24 12:16:43;;;;;;;8.02;4.25;;;14.10;99.90;;;;;;5073113;28;20111;-78
2021/10/24 12:19:33;;;;;;;8.50;5.13;;;14.00;99.90;;;;;;5091014;28;20429;-77
2021/10/24 12:22:08;;;;;;;14.23;5.18;;;14.10;99.90;;;;;;5078573;28;20028;-79
2021/10/24 12:24:50;;;;;;;7.07;4.20;;;14.20;99.90;;;;;;5089108;28;20367;-79
2021/10/24 12:27:19;;;;;;;6.97;3.78;;;14.20;99.90;;;;;;5090527;28;20042;-79
2021/10/24 12:30:19;;;;;;;5.03;3.20;;;14.20;99.90;;;;;;5088416;28;20027;-79
2021/10/24 12:33:06;;;;;;;5.88;3.20;;;14.20;99.90;;;;;;5070603;28;20032;-80
2021/10/24 12:35:48;;;;;;;7.45;3.08;;;14.10;99.90;;;;;;5068150;28;20381;-79
2021/10/24 12:38:21;;;;;;;9.27;3.80;;;14.10;99.90;;;;;;5092627;28;20039;-79
2021/10/24 12:40:54;;;;;;;3.90;3.50;;;14.10;99.90;;;;;;5078161;28;20395;-82
2021/10/24 12:43:20;;;;;;;5.25;3.95;;;14.10;99.90;;;;;;5086219;28;20044;-80
2021/10/24 12:45:57;;;;;;;8.25;3.92;;;14.20;99.90;;;;;;5088228;28;20052;-82